createdAt,value
2022-10-04T00:01:45.766Z,37.20
2022-10-04T00:06:58.371Z,37.10
2022-10-04T00:12:04.163Z,38.50
2022-10-04T00:17:24.812Z,37.20
2022-10-04T00:22:30.372Z,35.80
2022-10-04T00:27:39.086Z,32.70
2022-10-04T00:32:42.516Z,33.50
2022-10-04T00:38:01.411Z,31.80
2022-10-04T00:43:24.552Z,31.60
2022-10-04T00:48:47.207Z,30.30
2022-10-04T00:54:07.211Z,31.10
2022-10-04T00:59:27.920Z,30.60
2022-10-04T01:04:41.778Z,30.90
2022-10-04T01:10:00.241Z,28.00
2022-10-04T01:15:14.709Z,26.60
2022-10-04T01:20:37.385Z,29.80
2022-10-04T01:25:49.001Z,29.40
2022-10-04T01:30:55.401Z,29.50
2022-10-04T01:35:58.979Z,31.10
2022-10-04T01:41:06.256Z,29.80
2022-10-04T01:46:23.576Z,29.10
2022-10-04T01:51:31.156Z,28.60
2022-10-04T01:56:44.178Z,29.70
2022-10-04T02:01:50.456Z,29.50
2022-10-04T02:06:57.119Z,27.40
2022-10-04T02:12:00.983Z,25.90
2022-10-04T02:17:10.703Z,27.60
2022-10-04T02:22:14.463Z,26.10
2022-10-04T02:27:18.107Z,27.30
2022-10-04T02:32:40.543Z,24.30
2022-10-04T02:37:45.288Z,25.90
2022-10-04T02:42:48.707Z,26.40
2022-10-04T02:47:58.647Z,24.40
2022-10-04T02:53:11.815Z,24.30
2022-10-04T02:58:18.613Z,24.20
2022-10-04T03:03:34.782Z,23.40
2022-10-04T03:08:46.835Z,23.20
2022-10-04T03:14:09.187Z,23.40
2022-10-04T03:19:16.248Z,23.30
2022-10-04T03:24:25.989Z,21.70
2022-10-04T03:29:35.612Z,21.60
2022-10-04T03:34:42.100Z,23.50
2022-10-04T03:40:08.848Z,21.60
2022-10-04T03:45:16.823Z,22.60
2022-10-04T03:50:26.051Z,21.90
2022-10-04T03:55:37.340Z,20.60
2022-10-04T04:00:52.452Z,21.00
2022-10-04T04:06:03.710Z,21.20
2022-10-04T04:11:29.548Z,19.90
2022-10-04T04:16:40.100Z,20.60
2022-10-04T04:21:44.857Z,20.20
2022-10-04T04:26:55.430Z,19.80
2022-10-04T04:32:09.674Z,20.10
2022-10-04T04:37:13.337Z,18.90
2022-10-04T04:42:23.932Z,18.00
2022-10-04T04:47:36.544Z,18.50
2022-10-04T04:52:41.599Z,18.30
2022-10-04T04:57:50.034Z,18.20
2022-10-04T05:02:58.797Z,18.40
2022-10-04T05:08:25.525Z,17.00
2022-10-04T05:13:40.270Z,17.70
2022-10-04T05:18:46.034Z,17.10
2022-10-04T05:23:50.107Z,15.40
2022-10-04T05:29:00.532Z,14.10
2022-10-04T05:34:27.439Z,13.00
2022-10-04T05:39:41.304Z,12.70
2022-10-04T05:44:58.543Z,12.90
2022-10-04T05:50:03.802Z,12.40
2022-10-04T05:55:29.034Z,11.10
2022-10-04T06:00:47.264Z,11.30
2022-10-04T06:05:55.629Z,11.20
2022-10-04T06:11:20.909Z,11.80
2022-10-04T06:16:45.046Z,11.30
2022-10-04T06:22:01.313Z,10.70
2022-10-04T06:27:11.362Z,10.90
2022-10-04T06:32:24.386Z,10.50
2022-10-04T06:37:49.431Z,10.20
2022-10-04T06:43:34.496Z,9.60
2022-10-04T06:48:47.126Z,9.40
2022-10-04T06:54:20.635Z,9.00
2022-10-04T06:59:53.219Z,9.40
2022-10-04T07:05:08.507Z,9.50
2022-10-04T07:10:20.962Z,9.50
2022-10-04T07:15:30.863Z,8.80
2022-10-04T07:20:37.039Z,8.90
2022-10-04T07:25:54.206Z,8.80
2022-10-04T07:31:15.583Z,8.40
2022-10-04T07:36:28.397Z,7.80
2022-10-04T07:41:40.016Z,8.00
2022-10-04T07:46:43.595Z,8.50
2022-10-04T07:51:53.066Z,7.90
2022-10-04T07:57:02.027Z,7.70
2022-10-04T08:02:28.934Z,7.60
2022-10-04T08:08:03.889Z,6.80
2022-10-04T08:13:16.313Z,9.60
2022-10-04T08:18:56.058Z,7.90
2022-10-04T08:24:06.350Z,7.70
2022-10-04T08:29:37.699Z,7.70
2022-10-04T08:35:02.260Z,7.10
2022-10-04T08:40:12.863Z,29.20
2022-10-04T08:45:32.775Z,116.00
2022-10-04T08:51:06.683Z,128.30
2022-10-04T08:56:25.146Z,131.10
2022-10-04T09:01:46.228Z,104.30
2022-10-04T09:12:20.426Z,99.40
2022-10-04T09:18:01.890Z,89.20
2022-10-04T09:23:23.853Z,81.90
2022-10-04T09:28:39.484Z,79.00
2022-10-04T09:33:55.760Z,101.60
2022-10-04T09:39:29.057Z,165.20
2022-10-04T09:44:40.566Z,204.40
2022-10-04T09:50:19.182Z,228.80
2022-10-04T09:55:49.824Z,196.90
2022-10-04T10:01:51.306Z,197.40
2022-10-04T10:07:11.056Z,177.40
2022-10-04T10:12:45.378Z,168.40
2022-10-04T10:18:28.298Z,161.80
2022-10-04T10:24:00.165Z,158.70
2022-10-04T10:29:41.559Z,151.60
2022-10-04T10:35:04.411Z,145.40
2022-10-04T10:40:33.640Z,137.80
2022-10-04T10:45:47.576Z,133.60
2022-10-04T10:51:21.478Z,124.90
2022-10-04T10:56:51.926Z,117.70
2022-10-04T11:02:05.980Z,112.20
2022-10-04T11:07:20.376Z,114.70
2022-10-04T11:12:35.950Z,105.90
2022-10-04T11:18:07.409Z,99.40
2022-10-04T11:23:49.414Z,95.90
2022-10-04T11:29:26.802Z,90.40
2022-10-04T11:35:05.528Z,84.40
2022-10-04T11:40:24.586Z,89.40
2022-10-04T11:45:44.084Z,83.60
2022-10-04T11:51:13.023Z,81.00
2022-10-04T11:56:35.565Z,80.80
2022-10-04T12:01:50.417Z,79.70
2022-10-04T12:07:24.866Z,75.50
2022-10-04T12:12:40.543Z,72.80
2022-10-04T12:18:22.134Z,67.80
2022-10-04T12:23:28.290Z,67.00
2022-10-04T12:29:11.800Z,64.10
2022-10-04T12:34:41.196Z,68.90
2022-10-04T12:39:48.478Z,62.80
2022-10-04T12:45:04.058Z,63.30
2022-10-04T12:50:22.826Z,59.10
2022-10-04T12:56:11.484Z,57.40
2022-10-04T13:01:41.355Z,53.70
2022-10-04T13:06:57.507Z,54.30
2022-10-04T13:12:21.327Z,54.50
2022-10-04T13:17:47.019Z,53.30
2022-10-04T13:22:58.629Z,48.30
2022-10-04T13:28:17.197Z,47.70
2022-10-04T13:34:17.246Z,45.70
2022-10-04T13:39:43.433Z,43.80
2022-10-04T13:44:50.619Z,42.50
2022-10-04T13:50:26.620Z,40.50
2022-10-04T13:56:07.984Z,42.20
2022-10-04T14:01:20.379Z,41.10
2022-10-04T14:06:27.204Z,41.30
2022-10-04T14:11:45.815Z,39.20
2022-10-04T14:17:13.850Z,39.60
2022-10-04T14:22:29.473Z,36.80
2022-10-04T14:28:10.919Z,35.20
2022-10-04T14:33:40.310Z,34.30
2022-10-04T14:39:01.584Z,32.10
2022-10-04T14:44:28.214Z,33.00
2022-10-04T14:50:01.222Z,32.60
2022-10-04T14:55:17.111Z,30.60
2022-10-04T15:00:24.110Z,29.50
2022-10-04T15:06:04.978Z,30.10
2022-10-04T15:11:18.055Z,25.70
2022-10-04T15:16:53.287Z,36.50
2022-10-04T15:22:33.628Z,34.10
2022-10-04T15:27:47.689Z,33.90
2022-10-04T15:33:28.980Z,32.30
2022-10-04T15:38:49.552Z,31.20
2022-10-04T15:44:12.134Z,29.60
2022-10-04T15:49:50.344Z,32.40
2022-10-04T15:55:28.076Z,32.50
2022-10-04T16:00:57.487Z,29.70
2022-10-04T16:06:17.777Z,30.50
2022-10-04T16:11:30.023Z,32.70
2022-10-04T16:16:44.215Z,29.50
2022-10-04T16:22:09.363Z,30.30
2022-10-04T16:27:39.644Z,29.50
2022-10-04T16:33:29.209Z,29.00
2022-10-04T16:39:14.302Z,27.90
2022-10-04T16:45:06.808Z,29.60
2022-10-04T16:50:50.829Z,27.20
2022-10-04T16:56:02.845Z,27.10
2022-10-04T17:01:26.150Z,25.20
2022-10-04T17:06:49.619Z,24.70
2022-10-04T17:12:08.053Z,24.50
2022-10-04T17:17:37.976Z,23.30
2022-10-04T17:22:53.048Z,24.10
2022-10-04T17:28:17.298Z,22.30
2022-10-04T17:33:36.826Z,21.10
2022-10-04T17:38:47.825Z,21.40
2022-10-04T17:44:11.704Z,20.20
2022-10-04T17:50:06.698Z,19.70
2022-10-04T17:55:19.137Z,18.50
2022-10-04T18:00:31.487Z,18.10
2022-10-04T18:05:47.983Z,17.90
2022-10-04T18:11:04.887Z,17.30
2022-10-04T18:16:24.806Z,17.80
2022-10-04T18:21:33.000Z,16.00
2022-10-04T18:27:00.985Z,17.10
2022-10-04T18:32:40.084Z,16.70
2022-10-04T18:37:50.512Z,15.00
2022-10-04T18:43:08.547Z,13.60
2022-10-04T18:48:45.206Z,15.60
2022-10-04T18:54:39.329Z,28.20
2022-10-04T19:00:47.395Z,57.20
2022-10-04T19:06:04.399Z,95.50
2022-10-04T19:11:17.697Z,136.80
2022-10-04T19:17:07.128Z,135.20
2022-10-04T19:22:47.331Z,213.90
2022-10-04T19:28:17.948Z,227.30
2022-10-04T19:33:45.204Z,239.30
2022-10-04T19:39:12.717Z,237.80
2022-10-04T19:44:49.327Z,247.80
2022-10-04T19:50:21.391Z,213.50
2022-10-04T19:56:04.424Z,218.70
2022-10-04T20:01:17.594Z,215.10
2022-10-04T20:06:27.937Z,198.80
2022-10-04T20:11:41.236Z,188.80
2022-10-04T20:16:55.312Z,190.20
2022-10-04T20:22:37.200Z,186.40
2022-10-04T20:27:48.538Z,176.80
2022-10-04T20:32:58.322Z,179.10
2022-10-04T20:38:31.130Z,169.30
2022-10-04T20:44:02.809Z,170.00
2022-10-04T20:49:17.695Z,165.30
2022-10-04T20:54:32.487Z,158.40
2022-10-04T20:59:41.694Z,161.90
2022-10-04T21:04:47.755Z,148.90
2022-10-04T21:09:54.280Z,157.30
2022-10-04T21:15:27.229Z,147.80
2022-10-04T21:20:50.476Z,140.40
2022-10-04T21:26:31.781Z,133.90
2022-10-04T21:31:35.469Z,139.80
2022-10-04T21:36:42.812Z,134.00
2022-10-04T21:41:54.884Z,133.00
2022-10-04T21:47:00.991Z,130.60
2022-10-04T21:52:06.068Z,126.90
2022-10-04T21:57:12.251Z,124.70
2022-10-04T22:02:15.943Z,121.30
2022-10-04T22:07:21.946Z,120.90
2022-10-04T22:12:30.373Z,111.60
2022-10-04T22:17:39.741Z,108.30
2022-10-04T22:22:43.972Z,112.90
2022-10-04T22:27:48.255Z,110.70
2022-10-04T22:32:55.487Z,108.20
2022-10-04T22:38:03.023Z,103.20
2022-10-04T22:43:13.436Z,107.10
2022-10-04T22:48:20.142Z,102.20
2022-10-04T22:53:28.628Z,102.50
2022-10-04T22:58:32.355Z,102.50
2022-10-04T23:03:36.628Z,100.80
2022-10-04T23:08:43.797Z,95.70
2022-10-04T23:13:47.214Z,96.10
2022-10-04T23:19:03.011Z,89.60
2022-10-04T23:24:21.461Z,89.50
2022-10-04T23:29:35.006Z,87.80
2022-10-04T23:34:40.776Z,85.40
2022-10-04T23:39:45.137Z,85.30
2022-10-04T23:44:51.012Z,85.90
2022-10-04T23:49:54.533Z,81.50
2022-10-04T23:54:59.591Z,80.60
